Time;durP1;ratioP1;P1;durP2;ratioP2;P2;SDS_P1;SDS_P2;PMS_P1;PMS_P2;Temp;Humidity;BMP_temperature;BMP_pressure;BME280_temperature;BME280_humidity;BME280_pressure;Samples;Min_cycle;Max_cycle;Signal;HPM_P1;HPM_P2
2021/03/17 00:00:37;;;;;;;11.68;7.00;;;5.50;90.70;4.30;102343.00;;;;4987876;28;20632;-68
2021/03/17 00:03:23;;;;;;;13.40;6.97;;;5.50;90.60;4.20;102345.00;;;;4978300;28;20106;-69
2021/03/17 00:06:08;;;;;;;12.82;7.30;;;5.50;90.60;4.20;102332.00;;;;4961660;28;20098;-67
2021/03/17 00:08:53;;;;;;;12.57;7.00;;;5.50;90.40;4.30;102340.00;;;;4977049;28;20113;-68
2021/03/17 00:11:38;;;;;;;12.60;6.75;;;5.50;90.60;4.20;102345.00;;;;4953394;28;20159;-68
2021/03/17 00:14:22;;;;;;;10.55;6.43;;;5.50;90.70;4.20;102347.00;;;;4955438;28;20190;-69
2021/03/17 00:17:07;;;;;;;11.00;7.05;;;5.40;90.80;4.20;102350.00;;;;4953600;28;20536;-68
2021/03/17 00:19:52;;;;;;;12.13;6.70;;;5.40;90.90;4.20;102349.00;;;;4976289;28;20188;-68
2021/03/17 00:22:37;;;;;;;9.20;5.90;;;5.40;90.50;4.10;102333.00;;;;4971919;28;20061;-68
2021/03/17 00:25:24;;;;;;;11.25;6.68;;;5.40;90.80;4.10;102334.00;;;;4989982;28;20652;-68
2021/03/17 00:28:09;;;;;;;9.80;6.33;;;5.70;90.80;4.10;102347.00;;;;4975169;28;20113;-68
2021/03/17 00:30:54;;;;;;;12.77;6.20;;;5.30;90.70;4.10;102351.00;;;;4975435;28;20304;-68
2021/03/17 00:33:39;;;;;;;12.35;6.32;;;5.30;90.70;4.00;102343.00;;;;4975625;28;20057;-68
2021/03/17 00:36:23;;;;;;;13.30;6.60;;;5.30;90.60;4.00;102332.00;;;;4972603;28;20143;-67
2021/03/17 00:39:08;;;;;;;9.63;6.15;;;5.20;90.80;4.00;102332.00;;;;4971064;28;20197;-68
2021/03/17 00:41:52;;;;;;;7.53;5.10;;;5.20;90.80;3.90;102351.00;;;;4972239;28;20136;-68
2021/03/17 00:44:37;;;;;;;10.80;5.80;;;5.20;90.90;3.90;102353.00;;;;4978339;28;20206;-68
2021/03/17 00:47:21;;;;;;;10.93;5.93;;;5.20;90.90;3.90;102353.00;;;;4974445;28;20042;-68
2021/03/17 00:49:47;;;;;;;8.75;5.32;;;5.20;90.80;3.90;102348.00;;;;4972316;28;20121;-68
2021/03/17 00:52:13;;;;;;;11.13;6.07;;;5.20;90.70;3.90;102361.00;;;;4975416;28;20064;-68
2021/03/17 00:54:58;;;;;;;9.40;5.55;;;5.10;91.00;3.90;102367.00;;;;4975725;28;20100;-68
2021/03/17 00:57:34;;;;;;;11.45;5.60;;;5.10;90.90;3.90;102357.00;;;;4971465;28;20050;-67
2021/03/17 01:00:01;;;;;;;8.93;5.25;;;5.10;90.80;3.90;102369.00;;;;4976809;28;20108;-68
2021/03/17 01:02:27;;;;;;;9.15;5.20;;;5.40;91.20;3.90;102372.00;;;;4973708;28;20300;-67
2021/03/17 01:04:52;;;;;;;12.05;6.13;;;5.10;91.00;3.90;102368.00;;;;4971171;28;20046;-68
2021/03/17 01:07:20;;;;;;;12.80;7.35;;;5.10;90.70;3.90;102373.00;;;;4974031;28;20050;-69
2021/03/17 01:09:46;;;;;;;17.63;9.65;;;5.10;90.90;3.90;102371.00;;;;4969038;28;20047;-68
2021/03/17 01:12:13;;;;;;;16.80;10.00;;;5.10;91.00;3.90;102369.00;;;;4957237;28;20262;-68
2021/03/17 01:14:40;;;;;;;17.35;9.15;;;5.10;91.10;3.90;102367.00;;;;4966654;28;20173;-68
2021/03/17 01:17:06;;;;;;;12.70;8.10;;;5.10;91.00;3.90;102369.00;;;;4969130;28;20046;-67
2021/03/17 01:19:33;;;;;;;12.40;7.78;;;5.20;91.10;3.90;102373.00;;;;4952768;28;20043;-69
2021/03/17 01:21:59;;;;;;;8.20;5.35;;;5.20;90.90;3.90;102370.00;;;;4950585;28;20039;-68
2021/03/17 01:24:26;;;;;;;10.45;5.63;;;5.10;91.10;3.90;102364.00;;;;4956650;28;20050;-68
2021/03/17 01:26:52;;;;;;;11.63;5.68;;;5.10;91.20;3.90;102364.00;;;;4956259;28;20054;-68
2021/03/17 01:29:19;;;;;;;10.02;6.10;;;5.10;91.70;3.90;102364.00;;;;4953232;28;20031;-68
2021/03/17 01:31:45;;;;;;;10.57;6.70;;;5.10;91.30;3.90;102374.00;;;;4953795;28;20133;-68
2021/03/17 01:34:11;;;;;;;9.18;6.22;;;5.10;91.20;3.90;102376.00;;;;4966697;28;20943;-68
2021/03/17 01:36:37;;;;;;;10.05;5.40;;;5.10;90.80;3.90;102373.00;;;;4932938;28;20039;-68
2021/03/17 01:39:04;;;;;;;8.73;5.43;;;5.10;90.70;3.90;102372.00;;;;4950536;28;20051;-68
2021/03/17 01:41:30;;;;;;;11.93;7.05;;;5.10;91.20;3.90;102388.00;;;;4945998;28;20111;-68
2021/03/17 01:43:56;;;;;;;14.15;9.63;;;5.10;91.20;3.90;102388.00;;;;4953590;28;20642;-68
2021/03/17 01:46:22;;;;;;;17.52;11.88;;;5.10;90.90;3.90;102388.00;;;;4962416;28;20090;-68
2021/03/17 01:48:48;;;;;;;14.00;9.88;;;5.20;91.30;4.00;102392.00;;;;4951815;28;20494;-68
2021/03/17 01:51:14;;;;;;;17.50;10.18;;;5.20;91.30;4.00;102385.00;;;;4945908;28;20102;-67
2021/03/17 01:53:41;;;;;;;12.20;8.30;;;5.20;91.20;4.00;102384.00;;;;4935910;28;20145;-68
2021/03/17 01:56:09;;;;;;;;;;;5.20;91.30;3.90;102394.00;;;;4946425;28;20413;-68
2021/03/17 01:58:36;;;;;;;14.88;9.27;;;5.20;91.40;4.00;102392.00;;;;4960030;28;20131;-69
2021/03/17 02:01:04;;;;;;;16.13;10.73;;;5.20;90.90;3.90;102387.00;;;;4965317;28;20371;-68
2021/03/17 02:03:31;;;;;;;18.38;10.70;;;5.20;91.30;4.00;102389.00;;;;4955306;28;20097;-68
2021/03/17 02:05:57;;;;;;;18.43;10.77;;;5.20;91.10;3.90;102384.00;;;;4968332;28;20046;-68
2021/03/17 02:08:53;;;;;;;21.38;13.13;;;5.20;91.40;3.90;102400.00;;;;4957962;28;20286;-68
2021/03/17 02:11:19;;;;;;;21.90;12.68;;;5.20;91.50;3.90;102402.00;;;;4932202;28;20169;-69
2021/03/17 02:14:09;;;;;;;27.83;15.55;;;5.20;91.60;3.90;102401.00;;;;4954193;28;20046;-68
2021/03/17 02:16:57;;;;;;;22.55;12.13;;;5.20;91.60;3.90;102402.00;;;;4954649;28;20134;-68
2021/03/17 02:19:59;;;;;;;29.52;16.60;;;5.20;91.70;3.90;102398.00;;;;4967337;28;20584;-68
2021/03/17 02:22:31;;;;;;;25.10;13.90;;;5.20;91.30;4.00;102400.00;;;;4953229;28;20046;-68
2021/03/17 02:25:08;;;;;;;29.30;15.63;;;5.20;91.50;4.00;102406.00;;;;4949534;28;20078;-68
2021/03/17 02:27:54;;;;;;;19.65;13.00;;;5.20;91.50;3.90;102393.00;;;;4953917;28;20043;-68
2021/03/17 02:31:04;;;;;;;13.85;9.10;;;5.20;91.40;3.90;102398.00;;;;4962764;28;20054;-68
2021/03/17 02:33:52;;;;;;;15.13;9.45;;;5.20;91.40;4.00;102386.00;;;;4956255;28;20054;-68
2021/03/17 02:36:38;;;;;;;10.38;7.40;;;5.20;91.10;4.00;102377.00;;;;4967163;28;20059;-68
2021/03/17 02:39:13;;;;;;;11.40;7.57;;;5.30;91.40;4.00;102373.00;;;;4955136;28;20046;-68
2021/03/17 02:42:08;;;;;;;9.32;6.53;;;5.30;91.50;4.00;102374.00;;;;4951984;28;20054;-68
2021/03/17 02:44:44;;;;;;;7.97;6.07;;;5.30;91.40;4.10;102365.00;;;;4960151;28;20057;-69
2021/03/17 02:47:11;;;;;;;10.38;6.85;;;5.30;91.10;4.10;102347.00;;;;4940857;28;20162;-68
2021/03/17 02:49:41;;;;;;;10.18;7.60;;;5.30;91.50;4.10;102361.00;;;;4958204;28;20082;-68
2021/03/17 02:52:09;;;;;;;11.35;7.22;;;5.30;91.50;4.10;102378.00;;;;4952253;28;21378;-68
2021/03/17 02:54:36;;;;;;;11.77;7.97;;;5.30;91.50;4.10;102376.00;;;;4950824;28;20058;-68
2021/03/17 02:57:25;;;;;;;12.63;8.13;;;5.30;91.50;4.10;102366.00;;;;4942655;28;20117;-69
2021/03/17 02:59:54;;;;;;;12.98;8.38;;;5.40;91.50;4.20;102372.00;;;;4952496;28;20043;-68
2021/03/17 03:02:22;;;;;;;15.38;9.52;;;5.40;91.50;4.20;102367.00;;;;4949978;28;20726;-69
2021/03/17 03:04:52;;;;;;;11.45;8.23;;;5.40;91.50;4.20;102373.00;;;;4948698;28;20164;-69
2021/03/17 03:07:20;;;;;;;16.05;9.95;;;5.40;91.20;4.30;102365.00;;;;4951376;28;20043;-68
2021/03/17 03:09:47;;;;;;;17.65;9.45;;;5.50;91.20;4.30;102357.00;;;;4952858;28;20425;-68
2021/03/17 03:12:14;;;;;;;15.68;10.05;;;5.50;91.30;4.30;102355.00;;;;4954990;28;20078;-68
2021/03/17 03:14:41;;;;;;;13.40;9.30;;;5.50;91.60;4.30;102350.00;;;;4951884;28;20054;-69
2021/03/17 03:17:08;;;;;;;16.08;9.57;;;5.50;91.20;4.30;102349.00;;;;4957964;28;20031;-68
2021/03/17 03:19:47;;;;;;;12.18;8.98;;;5.50;91.60;4.30;102353.00;;;;4956572;28;20121;-69
2021/03/17 03:22:14;;;;;;;13.00;9.45;;;5.50;91.20;4.30;102335.00;;;;4970247;28;20610;-69
2021/03/17 03:24:41;;;;;;;13.05;8.98;;;5.50;91.30;4.40;102339.00;;;;4950830;28;20091;-69
2021/03/17 03:27:08;;;;;;;12.57;8.75;;;5.50;91.60;4.40;102353.00;;;;4956802;28;20118;-68
2021/03/17 03:29:35;;;;;;;14.15;10.38;;;5.50;91.30;4.40;102360.00;;;;4950549;28;20050;-68
2021/03/17 03:32:06;;;;;;;11.98;8.88;;;5.60;91.70;4.40;102341.00;;;;4963871;28;20039;-68
2021/03/17 03:34:33;;;;;;;13.05;9.40;;;5.60;91.20;4.40;102343.00;;;;4947336;28;20401;-68
2021/03/17 03:36:59;;;;;;;13.50;9.93;;;5.60;91.30;4.40;102344.00;;;;4944185;28;20049;-69
2021/03/17 03:39:25;;;;;;;12.77;8.50;;;5.60;91.30;4.30;102353.00;;;;4952695;28;20063;-69
2021/03/17 03:41:53;;;;;;;11.40;8.63;;;5.60;91.80;4.30;102346.00;;;;4953632;28;20057;-68
2021/03/17 03:44:19;;;;;;;12.30;8.77;;;5.60;91.80;4.30;102342.00;;;;4956443;28;20053;-69
2021/03/17 03:46:45;;;;;;;13.43;8.80;;;5.50;91.40;4.40;102347.00;;;;4965754;28;20113;-68
2021/03/17 03:49:11;;;;;;;13.25;9.32;;;5.50;91.40;4.40;102359.00;;;;4936151;28;20242;-69
2021/03/17 03:51:43;;;;;;;14.80;9.25;;;5.50;91.30;4.40;102361.00;;;;4953007;28;20108;-68
2021/03/17 03:54:22;;;;;;;12.50;8.63;;;5.60;91.40;4.40;102357.00;;;;4974483;28;20081;-69
2021/03/17 03:57:11;;;;;;;12.55;8.55;;;5.60;91.40;4.40;102366.00;;;;4970322;28;20055;-68
2021/03/17 03:59:42;;;;;;;13.02;9.40;;;5.60;91.40;4.40;102364.00;;;;4951277;28;20070;-69
2021/03/17 04:02:12;;;;;;;10.90;8.68;;;5.70;91.90;4.40;102362.00;;;;4976655;28;20042;-70
2021/03/17 04:04:43;;;;;;;13.13;8.77;;;5.60;91.80;4.40;102369.00;;;;4991913;28;20500;-69
2021/03/17 04:07:11;;;;;;;12.15;8.32;;;5.60;91.50;4.50;102361.00;;;;4970930;28;20568;-69
2021/03/17 04:09:43;;;;;;;;;;;5.60;91.40;4.40;102374.00;;;;4966640;28;20055;-69
2021/03/17 04:12:11;;;;;;;11.25;8.65;;;5.60;91.90;4.40;102382.00;;;;4970206;28;19933;-69
2021/03/17 04:14:37;;;;;;;11.65;8.52;;;5.60;91.30;4.40;102376.00;;;;4971258;28;20054;-69
2021/03/17 04:17:30;;;;;;;12.35;8.88;;;6.00;91.90;4.40;102384.00;;;;4966020;28;20038;-69
2021/03/17 04:20:03;;;;;;;15.18;9.90;;;5.60;91.80;4.40;102375.00;;;;4989936;28;20717;-69
2021/03/17 04:22:31;;;;;;;11.18;8.85;;;5.60;91.50;4.40;102372.00;;;;4970736;28;20038;-70
2021/03/17 04:24:59;;;;;;;13.45;9.52;;;5.60;91.60;4.40;102368.00;;;;4986735;28;20400;-69
2021/03/17 04:27:27;;;;;;;11.43;8.52;;;5.60;91.80;4.40;102369.00;;;;4971597;28;20034;-70
2021/03/17 04:29:54;;;;;;;12.15;9.40;;;5.60;91.80;4.40;102384.00;;;;4987804;28;20444;-70
2021/03/17 04:32:23;;;;;;;11.38;8.77;;;5.60;91.90;4.40;102376.00;;;;4973669;28;20556;-70
2021/03/17 04:34:50;;;;;;;11.90;8.15;;;5.60;91.90;4.40;102371.00;;;;4971471;28;20053;-69
2021/03/17 04:37:17;;;;;;;11.85;8.38;;;5.60;91.50;4.40;102378.00;;;;4986602;28;20043;-70
2021/03/17 04:39:44;;;;;;;11.18;8.02;;;5.60;92.00;4.40;102383.00;;;;4967913;28;20081;-70
2021/03/17 04:42:11;;;;;;;11.63;8.27;;;5.60;92.00;4.40;102373.00;;;;4955360;28;20052;-70
2021/03/17 04:44:38;;;;;;;13.25;8.25;;;5.60;91.60;4.40;102386.00;;;;4971449;28;20377;-70
2021/03/17 04:47:05;;;;;;;11.82;8.10;;;5.60;91.60;4.40;102378.00;;;;4942629;28;20526;-70
2021/03/17 04:49:33;;;;;;;12.68;8.13;;;5.60;92.20;4.40;102390.00;;;;4963153;28;20047;-70
2021/03/17 04:52:00;;;;;;;11.70;8.20;;;5.60;91.60;4.40;102384.00;;;;4949826;28;20066;-71
2021/03/17 04:54:27;;;;;;;12.90;8.43;;;5.60;91.80;4.40;102381.00;;;;4946629;28;20047;-70
2021/03/17 04:56:56;;;;;;;12.45;8.43;;;5.60;91.90;4.40;102376.00;;;;4973676;28;20042;-70
2021/03/17 04:59:23;;;;;;;14.52;8.57;;;5.60;92.20;4.40;102387.00;;;;4963972;28;20126;-70
2021/03/17 05:01:50;;;;;;;12.43;8.82;;;5.60;92.30;4.40;102391.00;;;;4935065;28;20043;-70
2021/03/17 05:04:17;;;;;;;13.20;8.93;;;5.60;92.20;4.40;102390.00;;;;4963545;28;20178;-70
2021/03/17 05:06:45;;;;;;;16.38;9.05;;;;;4.40;102407.00;;;;4949912;28;20058;-70
2021/03/17 05:09:15;;;;;;;16.70;9.05;;;5.60;91.90;4.40;102400.00;;;;4951418;28;20154;-70
2021/03/17 05:11:42;;;;;;;12.80;8.68;;;5.60;92.40;4.40;102392.00;;;;4951894;28;20051;-69
2021/03/17 05:14:09;;;;;;;13.27;8.85;;;5.60;92.00;4.40;102399.00;;;;4934847;28;20046;-70
2021/03/17 05:16:36;;;;;;;16.10;9.75;;;5.60;92.00;4.40;102395.00;;;;4953000;28;20050;-70
2021/03/17 05:19:03;;;;;;;;;;;5.60;92.30;4.40;102397.00;;;;4953453;28;20077;-71
2021/03/17 05:21:32;;;;;;;13.23;8.80;;;5.60;92.00;4.40;102409.00;;;;4949004;28;19972;-71
2021/03/17 05:23:59;;;;;;;15.68;9.48;;;5.60;92.20;4.40;102396.00;;;;4964958;28;20043;-70
2021/03/17 05:26:26;;;;;;;13.73;9.85;;;5.60;92.40;4.40;102401.00;;;;4953242;28;20054;-70
2021/03/17 05:28:54;;;;;;;17.38;9.02;;;5.60;92.30;4.40;102397.00;;;;4935467;28;20565;-69
2021/03/17 05:31:20;;;;;;;12.63;8.55;;;5.60;92.00;4.40;102394.00;;;;4971542;28;20085;-70
2021/03/17 05:33:49;;;;;;;12.50;8.52;;;5.60;92.10;4.40;102400.00;;;;4945577;28;20178;-70
2021/03/17 05:36:15;;;;;;;13.85;9.05;;;5.60;92.10;4.50;102397.00;;;;4941484;28;20038;-70
2021/03/17 05:38:41;;;;;;;15.48;8.73;;;5.70;92.50;4.50;102406.00;;;;4944981;28;20836;-70
2021/03/17 05:41:07;;;;;;;13.10;9.32;;;5.70;92.50;4.50;102401.00;;;;4948337;28;20073;-70
2021/03/17 05:43:34;;;;;;;14.45;9.40;;;7.00;92.90;4.50;102408.00;;;;4952404;28;20284;-70
2021/03/17 05:46:05;;;;;;;;;;;5.80;92.50;4.40;102407.00;;;;4937611;28;20054;-70
2021/03/17 05:48:34;;;;;;;13.10;8.38;;;5.70;92.90;4.50;102408.00;;;;4958054;28;19966;-70
2021/03/17 05:51:00;;;;;;;12.02;8.27;;;5.70;92.60;4.50;102398.00;;;;4968274;28;20398;-70
2021/03/17 05:53:27;;;;;;;11.60;7.75;;;5.70;92.10;4.50;102408.00;;;;4950580;28;20506;-71
2021/03/17 05:55:53;;;;;;;12.30;8.18;;;5.50;92.80;4.50;102406.00;;;;4956175;28;20035;-70
2021/03/17 05:58:23;;;;;;;11.60;8.27;;;5.70;92.50;4.50;102406.00;;;;4955213;28;20059;-70
2021/03/17 06:00:49;;;;;;;14.57;8.85;;;5.70;92.20;4.50;102396.00;;;;4941007;28;20541;-70
2021/03/17 06:03:16;;;;;;;13.52;9.05;;;5.70;92.80;4.50;102396.00;;;;4954328;28;20038;-71
2021/03/17 06:05:45;;;;;;;14.38;8.45;;;5.70;92.30;4.50;102394.00;;;;4967241;28;20050;-72
2021/03/17 06:08:19;;;;;;;13.93;8.77;;;5.70;92.50;4.50;102398.00;;;;4970774;28;20070;-70
2021/03/17 06:10:46;;;;;;;9.52;6.97;;;5.70;92.70;4.50;102389.00;;;;4986617;28;20121;-70
2021/03/17 06:13:15;;;;;;;14.90;9.77;;;5.70;93.00;4.50;102387.00;;;;4966841;28;20284;-70
2021/03/17 06:15:56;;;;;;;23.48;13.18;;;5.70;92.80;4.50;102398.00;;;;4990055;28;20058;-70
2021/03/17 06:18:28;;;;;;;18.20;10.45;;;5.70;92.20;4.50;102399.00;;;;4994462;28;20146;-70
2021/03/17 06:20:56;;;;;;;14.35;8.93;;;5.70;92.40;4.50;102405.00;;;;4978677;28;20039;-70
2021/03/17 06:23:22;;;;;;;12.75;7.65;;;5.70;92.70;4.50;102401.00;;;;4974636;28;20812;-70
2021/03/17 06:25:49;;;;;;;12.25;8.07;;;5.70;92.20;4.60;102416.00;;;;4958372;28;20520;-70
2021/03/17 06:28:15;;;;;;;12.52;7.22;;;5.70;92.60;4.50;102402.00;;;;4960790;28;20039;-70
2021/03/17 06:30:45;;;;;;;13.25;7.75;;;7.90;93.40;4.50;102398.00;;;;4983539;28;20520;-69
2021/03/17 06:33:11;;;;;;;9.02;6.53;;;5.70;92.70;4.50;102402.00;;;;4982200;28;20157;-70
2021/03/17 06:35:37;;;;;;;12.38;7.53;;;5.70;92.50;4.50;102405.00;;;;4967813;28;20073;-69
2021/03/17 06:38:03;;;;;;;8.13;5.63;;;5.70;92.80;4.50;102407.00;;;;4970282;28;20050;-70
2021/03/17 06:40:37;;;;;;;6.85;5.20;;;5.70;92.80;4.50;102411.00;;;;4996717;28;20085;-69
2021/03/17 06:43:10;;;;;;;6.82;4.22;;;5.70;92.30;4.50;102404.00;;;;4977966;28;20820;-70
2021/03/17 06:45:39;;;;;;;6.45;4.25;;;5.70;92.50;4.50;102398.00;;;;4972188;28;20413;-69
2021/03/17 06:48:29;;;;;;;6.75;4.35;;;5.70;92.50;4.50;102395.00;;;;4972420;28;20065;-69
2021/03/17 06:51:15;;;;;;;5.70;4.00;;;5.70;92.50;4.50;102407.00;;;;4984504;28;20693;-69
2021/03/17 06:53:52;;;;;;;7.07;3.83;;;5.70;92.40;4.60;102398.00;;;;4994040;28;20390;-70
2021/03/17 06:56:19;;;;;;;6.00;3.33;;;5.70;92.40;4.60;102396.00;;;;4971881;28;20142;-69
2021/03/17 06:58:58;;;;;;;4.80;3.78;;;5.70;92.40;4.60;102402.00;;;;4952600;28;20078;-69
2021/03/17 07:01:35;;;;;;;6.07;3.63;;;5.80;91.90;4.70;102403.00;;;;4973116;28;20042;-70
2021/03/17 07:04:25;;;;;;;5.40;3.47;;;5.80;92.30;4.70;102412.00;;;;4968065;28;20046;-69
2021/03/17 07:07:02;;;;;;;5.22;3.13;;;5.90;91.80;4.70;102410.00;;;;4986997;28;20081;-69
2021/03/17 07:09:31;;;;;;;4.70;3.08;;;5.80;91.90;4.80;102406.00;;;;4955348;28;20074;-69
2021/03/17 07:12:09;;;;;;;6.28;3.42;;;5.90;92.20;4.70;102404.00;;;;4976605;28;20042;-69
2021/03/17 07:14:43;;;;;;;7.18;3.65;;;5.90;91.80;4.80;102406.00;;;;4978441;28;20054;-69
2021/03/17 07:17:27;;;;;;;7.68;4.30;;;5.60;92.10;4.80;102414.00;;;;4963386;28;20046;-69
2021/03/17 07:19:53;;;;;;;5.63;3.40;;;5.90;91.80;4.80;102418.00;;;;4965975;28;20082;-69
2021/03/17 07:22:20;;;;;;;5.35;3.72;;;5.90;91.70;4.80;102426.00;;;;4952286;28;20038;-69
2021/03/17 07:24:52;;;;;;;5.17;3.70;;;6.00;91.70;4.80;102424.00;;;;4958890;28;20134;-69
2021/03/17 07:27:28;;;;;;;5.25;3.78;;;6.00;92.10;4.80;102423.00;;;;4986267;28;20293;-69
2021/03/17 07:30:03;;;;;;;7.95;3.70;;;6.70;92.30;4.70;102437.00;;;;4975003;28;20077;-69
2021/03/17 07:33:00;;;;;;;3.67;2.22;;;5.90;92.10;4.60;102443.00;;;;4976985;28;20043;-69
2021/03/17 07:35:33;;;;;;;3.65;2.40;;;5.70;91.40;4.50;102436.00;;;;4971722;28;20447;-69
2021/03/17 07:38:14;;;;;;;5.57;2.10;;;5.80;91.90;4.40;102453.00;;;;4965793;28;20252;-69
2021/03/17 07:40:49;;;;;;;2.17;1.13;;;5.70;91.40;4.40;102453.00;;;;4970728;28;20113;-69
2021/03/17 07:43:16;;;;;;;3.30;1.30;;;7.20;92.20;4.30;102458.00;;;;4967711;28;20060;-69
2021/03/17 07:45:44;;;;;;;6.03;1.95;;;5.50;91.00;4.20;102461.00;;;;4991100;28;20720;-70
2021/03/17 07:48:13;;;;;;;2.40;1.23;;;5.50;91.70;4.20;102466.00;;;;4991465;28;20051;-69
2021/03/17 07:50:41;;;;;;;4.93;1.40;;;5.50;91.80;4.20;102458.00;;;;4950140;28;20109;-69
2021/03/17 07:53:11;;;;;;;4.97;1.70;;;5.40;91.40;4.20;102462.00;;;;4945818;28;20108;-69
2021/03/17 07:55:41;;;;;;;2.17;1.35;;;5.50;91.90;4.20;102470.00;;;;4929866;28;20039;-69
2021/03/17 07:58:08;;;;;;;6.53;1.85;;;5.40;91.50;4.30;102462.00;;;;4950976;28;20129;-69
2021/03/17 08:00:34;;;;;;;;;;;5.50;91.90;4.30;102469.00;;;;4950962;28;20089;-69
2021/03/17 08:03:00;;;;;;;2.13;1.50;;;5.60;91.60;4.40;102471.00;;;;4965811;28;19921;-70
2021/03/17 08:05:26;;;;;;;6.13;1.80;;;5.70;91.80;4.60;102465.00;;;;4943442;28;20054;-70
2021/03/17 08:07:53;;;;;;;3.60;1.70;;;5.70;91.70;4.70;102467.00;;;;4954718;28;20673;-70
2021/03/17 08:10:21;;;;;;;3.75;1.80;;;5.70;92.00;4.90;102454.00;;;;4971014;28;20093;-70
2021/03/17 08:12:46;;;;;;;;;;;5.90;92.00;5.20;102461.00;;;;4960252;28;20516;-70
2021/03/17 08:15:14;;;;;;;7.15;2.13;;;6.10;92.10;5.30;102458.00;;;;4967566;28;19930;-70
2021/03/17 08:17:40;;;;;;;1.98;1.77;;;6.30;91.80;5.40;102468.00;;;;4953021;28;20046;-70
2021/03/17 08:20:27;;;;;;;2.63;1.83;;;6.40;91.40;5.40;102463.00;;;;4959057;28;20066;-68
2021/03/17 08:22:57;;;;;;;2.72;1.63;;;6.40;89.00;5.40;102466.00;;;;4948699;28;20183;-70
2021/03/17 08:25:43;;;;;;;2.28;1.52;;;6.40;90.40;5.40;102473.00;;;;4950879;28;20106;-69
2021/03/17 08:28:22;;;;;;;2.38;1.92;;;6.50;90.60;5.50;102472.00;;;;4957822;28;20042;-69
2021/03/17 08:30:51;;;;;;;4.20;1.70;;;6.60;90.40;5.50;102483.00;;;;4956218;28;20042;-69
2021/03/17 08:33:31;;;;;;;2.47;1.52;;;6.60;90.50;5.50;102482.00;;;;4961544;28;20054;-69
2021/03/17 08:36:08;;;;;;;2.45;1.17;;;6.50;90.00;5.40;102487.00;;;;4971148;28;20044;-69
2021/03/17 08:38:54;;;;;;;4.18;1.40;;;6.50;89.60;5.30;102493.00;;;;4974576;28;20053;-69
2021/03/17 08:41:40;;;;;;;2.15;1.25;;;6.50;89.80;5.30;102483.00;;;;4980229;28;20137;-69
2021/03/17 08:44:17;;;;;;;1.70;0.95;;;6.40;89.90;5.30;102488.00;;;;4973326;28;20542;-68
2021/03/17 08:46:44;;;;;;;5.43;0.90;;;6.30;88.90;5.30;102475.00;;;;4961097;28;20054;-69
2021/03/17 08:49:26;;;;;;;3.25;1.17;;;6.30;90.10;5.30;102470.00;;;;4960994;28;20047;-69
2021/03/17 08:51:52;;;;;;;3.10;1.10;;;6.40;90.30;5.50;102483.00;;;;4972865;28;20705;-69
2021/03/17 08:54:33;;;;;;;5.05;1.33;;;6.50;89.80;5.40;102489.00;;;;4980777;28;20066;-69
2021/03/17 08:57:04;;;;;;;1.70;0.70;;;6.30;89.50;5.40;102489.00;;;;4978174;28;20042;-70
2021/03/17 08:59:45;;;;;;;1.98;0.90;;;6.50;86.90;5.50;102486.00;;;;4970353;28;20080;-70
2021/03/17 09:02:25;;;;;;;6.75;1.10;;;6.50;88.00;5.50;102486.00;;;;4965068;28;20181;-69
2021/03/17 09:04:59;;;;;;;5.20;1.00;;;6.60;89.10;5.60;102497.00;;;;4972756;28;20412;-70
2021/03/17 09:07:31;;;;;;;5.15;0.95;;;6.70;86.70;5.90;102488.00;;;;4970181;28;20521;-70
2021/03/17 09:10:08;;;;;;;3.55;0.95;;;6.90;87.50;6.10;102491.00;;;;4977459;28;20046;-69
2021/03/17 09:12:34;;;;;;;2.92;1.15;;;7.00;89.10;6.30;102492.00;;;;4978934;28;20049;-70
2021/03/17 09:15:17;;;;;;;5.35;1.10;;;7.10;86.70;6.20;102489.00;;;;4971605;28;20046;-70
2021/03/17 09:17:55;;;;;;;2.22;0.80;;;7.20;86.80;6.10;102501.00;;;;4987188;28;20514;-71
2021/03/17 09:20:32;;;;;;;3.95;2.08;;;7.50;87.00;6.10;102497.00;;;;4969449;28;20054;-70
2021/03/17 09:23:07;;;;;;;6.07;2.85;;;7.10;84.90;6.00;102499.00;;;;4974065;28;20177;-71
2021/03/17 09:25:48;;;;;;;6.20;2.30;;;7.10;85.90;5.90;102505.00;;;;4975485;28;20046;-70
2021/03/17 09:28:29;;;;;;;2.53;1.00;;;6.90;80.80;5.80;102502.00;;;;4971313;28;20112;-71
2021/03/17 09:31:08;;;;;;;1.55;0.90;;;6.90;84.30;5.70;102504.00;;;;4973300;28;20046;-71
2021/03/17 09:33:42;;;;;;;5.22;1.45;;;6.90;85.70;5.70;102504.00;;;;4968473;28;20049;-70
2021/03/17 09:36:23;;;;;;;4.50;0.80;;;6.80;85.60;5.70;102512.00;;;;4970724;28;20145;-70
2021/03/17 09:38:55;;;;;;;6.60;1.08;;;6.80;83.60;5.60;102506.00;;;;4976968;28;20034;-70
2021/03/17 09:41:27;;;;;;;4.70;1.55;;;6.70;85.30;5.60;102513.00;;;;4990309;28;20042;-70
2021/03/17 09:44:04;;;;;;;2.90;1.40;;;6.70;85.20;5.40;102524.00;;;;4978617;28;20114;-71
2021/03/17 09:46:31;;;;;;;1.98;1.05;;;6.40;86.50;5.20;102525.00;;;;4972115;28;20125;-71
2021/03/17 09:49:08;;;;;;;4.88;1.40;;;6.40;88.10;5.10;102514.00;;;;4972864;28;20116;-70
2021/03/17 09:51:38;;;;;;;3.30;1.30;;;6.30;88.00;5.10;102516.00;;;;4975758;28;20042;-71
2021/03/17 09:54:07;;;;;;;2.13;1.17;;;6.30;88.60;5.10;102510.00;;;;4968692;28;20047;-71
2021/03/17 09:56:48;;;;;;;3.00;1.30;;;6.30;89.50;5.20;102498.00;;;;4972071;28;20043;-71
2021/03/17 09:59:17;;;;;;;4.43;1.10;;;6.40;89.80;5.30;102506.00;;;;4961068;28;20116;-71
2021/03/17 10:02:24;;;;;;;4.35;1.10;;;6.40;89.00;5.40;102494.00;;;;4975254;28;20132;-71
2021/03/17 10:04:57;;;;;;;6.35;1.00;;;6.50;89.80;5.50;102488.00;;;;4970381;28;20813;-71
2021/03/17 10:07:26;;;;;;;4.03;1.30;;;6.40;85.00;5.40;102495.00;;;;4987786;28;20042;-71
2021/03/17 10:09:54;;;;;;;2.70;1.10;;;6.50;88.00;5.40;102501.00;;;;4976045;28;20194;-71
2021/03/17 10:12:26;;;;;;;2.60;1.02;;;6.50;88.60;5.50;102493.00;;;;4970040;28;20117;-71
2021/03/17 10:14:58;;;;;;;4.82;0.98;;;6.60;88.70;5.60;102513.00;;;;4969675;28;20034;-71
2021/03/17 10:17:28;;;;;;;3.63;1.13;;;6.70;86.50;5.80;102494.00;;;;4964962;28;20057;-70
2021/03/17 10:20:06;;;;;;;0.77;0.77;;;6.70;87.70;5.90;102493.00;;;;4971079;28;20416;-71
2021/03/17 10:22:32;;;;;;;3.95;1.33;;;6.90;85.60;6.10;102487.00;;;;4969686;28;20042;-71
2021/03/17 10:25:08;;;;;;;7.13;1.30;;;7.00;86.70;6.20;102491.00;;;;4965598;28;20081;-71
2021/03/17 10:27:49;;;;;;;4.53;1.30;;;7.10;85.30;6.40;102488.00;;;;4975756;28;20042;-71
2021/03/17 10:30:25;;;;;;;3.72;1.30;;;7.30;85.30;6.60;102492.00;;;;4985923;28;20186;-71
2021/03/17 10:32:53;;;;;;;4.53;1.25;;;7.50;81.20;6.70;102482.00;;;;4969816;28;20474;-71
2021/03/17 10:35:19;;;;;;;2.63;0.82;;;7.70;79.60;6.90;102484.00;;;;4963549;28;20117;-71
2021/03/17 10:37:46;;;;;;;6.45;1.13;;;7.80;79.00;6.90;102491.00;;;;4938423;28;20047;-71
2021/03/17 10:40:24;;;;;;;2.50;0.98;;;7.80;79.60;6.70;102493.00;;;;4973911;28;20035;-71
2021/03/17 10:42:54;;;;;;;;;;;7.80;80.70;6.50;102488.00;;;;4971221;28;20475;-71
2021/03/17 10:45:23;;;;;;;2.10;0.90;;;7.50;77.80;6.40;102488.00;;;;4973334;28;20503;-70
2021/03/17 10:47:51;;;;;;;2.60;0.80;;;8.20;81.60;6.50;102465.00;;;;4952847;28;20481;-71
2021/03/17 10:50:32;;;;;;;6.13;1.27;;;7.50;81.80;6.40;102485.00;;;;4952257;28;21468;-71
2021/03/17 10:52:58;;;;;;;5.75;0.90;;;7.50;78.80;6.30;102477.00;;;;4963913;28;20046;-71
2021/03/17 10:55:30;;;;;;;2.42;0.90;;;7.40;79.20;6.40;102480.00;;;;4974861;28;20588;-71
2021/03/17 10:58:11;;;;;;;6.50;1.20;;;7.40;77.90;6.60;102480.00;;;;4957971;28;20045;-71
2021/03/17 11:00:37;;;;;;;4.00;0.90;;;7.70;75.30;6.70;102474.00;;;;4987389;28;20046;-71
2021/03/17 11:03:24;;;;;;;2.75;1.00;;;7.70;76.80;6.80;102478.00;;;;4974575;28;20145;-71
2021/03/17 11:05:51;;;;;;;3.15;0.55;;;7.80;75.80;6.80;102477.00;;;;4989256;28;20054;-71
2021/03/17 11:08:17;;;;;;;5.63;1.10;;;7.80;75.50;6.80;102479.00;;;;4978933;28;20409;-70
2021/03/17 11:10:56;;;;;;;4.75;0.70;;;7.80;79.30;6.80;102484.00;;;;4959705;28;20146;-71
2021/03/17 11:13:26;;;;;;;7.00;1.65;;;7.80;75.40;6.70;102485.00;;;;4990321;28;20134;-70
2021/03/17 11:15:54;;;;;;;6.05;1.35;;;7.80;77.50;6.80;102489.00;;;;4978004;28;20038;-71
2021/03/17 11:18:22;;;;;;;5.90;1.13;;;7.70;78.10;6.70;102485.00;;;;4989018;28;20118;-71
2021/03/17 11:20:50;;;;;;;3.92;0.70;;;7.60;70.10;6.60;102502.00;;;;4969719;28;20061;-71
2021/03/17 11:23:46;;;;;;;4.85;1.10;;;7.60;74.80;6.50;102472.00;;;;4971335;28;20043;-71